createdAt,value
2022-07-25T05:28:02.001Z,11.95
2022-07-25T05:30:29.227Z,12.00
2022-07-25T05:32:55.975Z,12.27
2022-07-25T05:35:22.697Z,12.57
2022-07-25T05:37:49.435Z,12.88
2022-07-25T05:40:16.167Z,13.40
2022-07-25T05:42:42.929Z,13.05
2022-07-25T05:45:10.138Z,12.50
2022-07-25T05:47:37.043Z,12.82
2022-07-25T05:50:03.949Z,12.65
2022-07-25T05:52:30.692Z,13.10
2022-07-25T05:54:57.717Z,12.90
2022-07-25T05:57:24.437Z,12.82
2022-07-25T05:59:51.169Z,13.00
2022-07-25T06:02:18.032Z,13.93
2022-07-25T06:04:45.096Z,12.82
2022-07-25T06:07:11.845Z,13.38
2022-07-25T06:09:43.586Z,13.32
2022-07-25T06:12:10.258Z,13.02
2022-07-25T06:14:38.511Z,13.45
2022-07-25T06:17:05.258Z,13.30
2022-07-25T06:19:31.992Z,13.55
2022-07-25T06:21:58.737Z,13.80
2022-07-25T06:24:25.524Z,13.38
2022-07-25T06:26:52.227Z,13.50
2022-07-25T06:29:18.986Z,13.70
2022-07-25T06:31:46.463Z,13.55
2022-07-25T06:34:14.252Z,13.80
2022-07-25T06:36:41.014Z,14.05
2022-07-25T06:39:07.714Z,13.40
2022-07-25T06:41:34.481Z,13.48
2022-07-25T06:44:01.229Z,14.10
2022-07-25T06:46:31.425Z,13.50
2022-07-25T06:48:58.522Z,13.20
2022-07-25T06:51:25.641Z,12.93
2022-07-25T06:53:52.846Z,13.70
2022-07-25T06:56:19.712Z,13.35
2022-07-25T06:58:46.510Z,13.15
2022-07-25T07:01:13.326Z,13.15
2022-07-25T07:03:40.609Z,12.68
2022-07-25T07:06:09.450Z,12.60
2022-07-25T07:08:36.992Z,13.02
2022-07-25T07:11:04.656Z,13.20
2022-07-25T07:13:31.575Z,12.82
2022-07-25T07:15:58.830Z,13.18
2022-07-25T07:18:26.561Z,12.70
2022-07-25T07:20:53.836Z,12.57
2022-07-25T07:23:20.688Z,12.68
2022-07-25T07:25:47.716Z,12.00
2022-07-25T07:28:15.765Z,12.20
2022-07-25T07:31:15.663Z,13.25
2022-07-25T07:34:36.813Z,12.38
2022-07-25T07:37:19.207Z,12.95
2022-07-25T07:40:32.029Z,12.75
2022-07-25T07:42:54.699Z,12.95
2022-07-25T07:48:28.163Z,12.88
2022-07-25T07:51:05.810Z,12.65
2022-07-25T10:25:37.292Z,12.55
2022-07-25T10:28:09.880Z,12.00
2022-07-25T10:30:39.004Z,12.27
2022-07-25T10:33:12.870Z,12.18
2022-07-25T10:35:39.810Z,12.38
2022-07-25T10:38:07.098Z,12.30
2022-07-25T10:40:40.737Z,12.00
2022-07-25T10:43:13.223Z,12.02
2022-07-25T10:45:53.536Z,12.68
2022-07-25T10:48:31.927Z,12.40
2022-07-25T10:51:07.557Z,11.85
2022-07-25T10:53:46.373Z,12.02
2022-07-25T10:56:20.687Z,11.50
2022-07-25T10:59:00.487Z,12.30
2022-07-25T11:01:38.161Z,12.07
2022-07-25T11:04:16.245Z,11.88
2022-07-25T11:06:43.651Z,11.93
2022-07-25T11:09:19.265Z,11.35
2022-07-25T11:11:55.945Z,11.70
2022-07-25T11:14:32.592Z,12.20
2022-07-25T11:17:15.220Z,11.05
2022-07-25T11:19:44.208Z,11.13
2022-07-25T11:22:25.163Z,11.55
2022-07-25T11:24:52.322Z,11.32
2022-07-25T11:27:25.107Z,11.25
2022-07-25T11:29:52.840Z,11.25
2022-07-25T11:32:19.999Z,11.05
2022-07-25T11:34:52.435Z,10.95
2022-07-25T11:37:19.929Z,11.55
2022-07-25T11:39:48.309Z,11.07
2022-07-25T11:42:18.814Z,11.00
2022-07-25T11:44:51.922Z,11.63
2022-07-25T11:47:45.207Z,10.95
2022-07-25T11:50:14.931Z,11.50
2022-07-25T11:52:42.974Z,11.48
2022-07-25T11:55:17.836Z,11.50
2022-07-25T11:57:47.076Z,11.68
2022-07-25T12:00:20.711Z,11.48
2022-07-25T12:02:49.088Z,12.13
2022-07-25T12:05:20.427Z,11.43
2022-07-25T12:07:49.649Z,11.43
2022-07-25T12:10:32.299Z,12.40
2022-07-25T12:13:03.133Z,11.63
2022-07-25T12:15:40.544Z,11.30
2022-07-25T12:18:16.535Z,11.38
2022-07-25T12:20:45.947Z,11.68
2022-07-25T12:23:33.205Z,11.05
2022-07-25T12:26:03.539Z,11.85
2022-07-25T12:28:30.295Z,11.95
2022-07-25T12:30:57.215Z,11.85
2022-07-25T12:33:24.487Z,12.15
2022-07-25T12:35:54.908Z,11.73
2022-07-25T12:38:21.666Z,12.13
2022-07-25T12:40:57.241Z,11.48
2022-07-25T12:43:24.004Z,11.70
2022-07-25T12:45:52.344Z,11.70
2022-07-25T12:48:19.184Z,12.38
2022-07-25T12:50:49.324Z,12.13
2022-07-25T12:53:19.602Z,11.63
2022-07-25T12:55:52.003Z,12.10
2022-07-25T12:58:21.999Z,12.52
2022-07-25T13:01:00.958Z,12.40
2022-07-25T13:03:30.125Z,12.13
2022-07-25T13:05:59.653Z,11.98
2022-07-25T13:08:26.447Z,12.27
2022-07-25T13:10:58.934Z,11.95
2022-07-25T13:13:26.009Z,11.80
2022-07-25T13:15:59.038Z,12.07
2022-07-25T13:18:25.860Z,12.13
2022-07-25T13:21:02.715Z,11.98
2022-07-25T13:23:29.867Z,11.98
2022-07-25T13:26:00.109Z,11.65
2022-07-25T13:28:28.243Z,11.82
2022-07-25T13:30:57.804Z,12.15
2022-07-25T13:33:41.890Z,11.50
2022-07-25T13:36:09.676Z,12.70
2022-07-25T13:38:38.738Z,12.73
2022-07-25T13:41:16.076Z,11.93
2022-07-25T13:43:43.192Z,11.95
2022-07-25T13:46:10.816Z,11.30
2022-07-25T13:48:38.693Z,11.38
2022-07-25T13:51:08.559Z,11.63
2022-07-25T13:56:44.300Z,11.48
2022-07-25T13:59:14.515Z,11.13
2022-07-25T14:01:48.383Z,11.32
2022-07-25T14:04:15.255Z,11.55
2022-07-25T14:06:42.240Z,12.05
2022-07-25T14:12:20.705Z,11.70
2022-07-25T14:15:54.681Z,11.63
2022-07-25T14:18:21.591Z,11.38
2022-07-25T14:20:48.409Z,11.20
2022-07-25T14:23:28.156Z,10.93
2022-07-25T14:26:03.779Z,10.40
2022-07-25T14:28:30.525Z,11.63
2022-07-25T14:30:57.998Z,10.82
2022-07-25T14:33:29.221Z,11.10
2022-07-25T14:35:56.511Z,10.80
2022-07-25T14:38:28.902Z,11.20
2022-07-25T14:40:59.251Z,11.05
2022-07-25T14:43:29.195Z,10.82
2022-07-25T14:45:57.299Z,11.18
2022-07-25T14:48:24.375Z,10.68
2022-07-25T14:50:55.015Z,10.35
2022-07-25T14:53:22.346Z,10.40
2022-07-25T14:55:49.152Z,10.02
2022-07-25T14:58:22.153Z,10.50
2022-07-25T15:00:49.053Z,9.45
2022-07-25T15:03:22.495Z,10.60
2022-07-25T15:05:49.358Z,10.63
2022-07-25T15:08:16.736Z,10.15
2022-07-25T15:10:43.604Z,10.80
2022-07-25T15:15:59.725Z,10.40
2022-07-25T15:18:28.766Z,9.98
2022-07-25T15:21:33.697Z,9.88
2022-07-25T15:24:29.069Z,9.80
2022-07-25T15:26:59.371Z,9.07
2022-07-25T15:29:28.401Z,8.65
2022-07-25T15:32:01.223Z,9.25
2022-07-25T15:34:28.385Z,10.00
2022-07-25T15:36:58.555Z,9.10
2022-07-25T15:42:07.502Z,8.75
2022-07-25T15:44:41.588Z,9.50
2022-07-25T15:47:11.697Z,8.90
2022-07-25T15:50:15.915Z,9.40
2022-07-25T15:52:36.629Z,9.07
2022-07-25T15:55:03.763Z,9.57
2022-07-25T15:57:43.546Z,8.93
2022-07-25T16:00:13.287Z,9.35
2022-07-25T16:03:00.040Z,8.90
2022-07-25T16:05:27.411Z,8.70
2022-07-25T16:07:54.441Z,8.70
2022-07-25T16:10:21.273Z,9.05
2022-07-25T16:12:48.899Z,8.50
2022-07-25T16:15:16.548Z,8.95
2022-07-25T16:17:43.405Z,8.50
2022-07-25T16:20:50.374Z,8.93
2022-07-25T16:26:15.791Z,8.60
2022-07-25T16:28:47.142Z,9.15
2022-07-25T16:34:08.194Z,9.20
2022-07-25T16:36:46.150Z,9.00
2022-07-25T16:39:23.048Z,8.90
2022-07-25T16:41:50.469Z,8.25
2022-07-25T16:44:18.628Z,8.52
2022-07-25T16:46:46.178Z,8.30
2022-07-25T16:49:15.573Z,8.50
2022-07-25T16:51:45.822Z,8.10
2022-07-25T16:54:12.737Z,8.63
2022-07-25T16:56:44.050Z,8.45
2022-07-25T16:59:11.326Z,8.30
2022-07-25T17:01:41.403Z,8.27
2022-07-25T17:04:11.336Z,8.05
2022-07-25T17:06:38.544Z,8.60
2022-07-25T17:09:06.206Z,8.68
2022-07-25T17:11:34.737Z,8.60
2022-07-25T17:14:02.914Z,8.68
2022-07-25T17:16:32.708Z,8.80
2022-07-25T17:19:02.232Z,8.15
2022-07-25T17:21:34.874Z,8.43
2022-07-25T17:24:01.729Z,9.00
2022-07-25T17:26:28.580Z,8.65
2022-07-25T17:28:55.588Z,8.60
2022-07-25T17:31:26.785Z,8.88
2022-07-25T17:33:55.809Z,8.77
2022-07-25T17:36:28.553Z,8.73
2022-07-25T17:38:55.294Z,9.30
2022-07-25T17:41:21.967Z,9.30
2022-07-25T17:43:48.711Z,9.30
2022-07-25T17:46:16.187Z,9.80
2022-07-25T17:48:43.084Z,9.32
2022-07-25T17:51:19.314Z,9.30
2022-07-25T17:53:49.327Z,8.80
2022-07-25T17:56:16.415Z,9.25
2022-07-25T17:59:32.195Z,9.15
2022-07-25T18:01:59.131Z,9.45
2022-07-25T18:04:29.163Z,9.10
2022-07-25T18:06:56.131Z,9.40
2022-07-25T18:09:24.235Z,9.30
2022-07-25T18:11:51.209Z,9.48
2022-07-25T18:14:18.006Z,9.55
2022-07-25T18:16:51.938Z,9.30
2022-07-25T18:19:28.363Z,9.32
2022-07-25T18:21:57.717Z,9.48
2022-07-25T18:24:28.931Z,9.57
2022-07-25T18:27:11.880Z,9.23
2022-07-25T18:29:42.506Z,9.57
2022-07-25T18:32:12.018Z,9.20
2022-07-25T18:34:38.704Z,9.00
2022-07-25T18:37:05.607Z,8.70
2022-07-25T18:39:32.478Z,8.80
2022-07-25T18:42:01.426Z,8.57
2022-07-25T18:44:35.886Z,8.80
2022-07-25T18:47:03.146Z,8.60
2022-07-25T18:49:30.191Z,8.80
2022-07-25T18:51:56.933Z,8.80
2022-07-25T18:54:23.702Z,8.60
2022-07-25T18:56:50.598Z,8.45
2022-07-25T18:59:21.339Z,8.98
2022-07-25T19:01:51.853Z,9.43
2022-07-25T19:04:24.880Z,9.38
2022-07-25T19:06:56.878Z,9.10
2022-07-25T19:09:26.472Z,9.00
2022-07-25T19:11:54.311Z,8.90
2022-07-25T19:14:26.089Z,8.60
2022-07-25T19:17:11.470Z,8.70
2022-07-25T19:19:50.025Z,8.85
2022-07-25T19:22:16.983Z,8.90
2022-07-25T19:24:50.631Z,8.60
2022-07-25T19:27:21.838Z,8.40
2022-07-25T19:29:57.705Z,8.60
2022-07-25T19:32:24.750Z,8.77
2022-07-25T19:34:54.530Z,8.75
2022-07-25T19:37:24.649Z,8.85
2022-07-25T19:39:54.092Z,9.20
2022-07-25T19:42:25.670Z,8.60
2022-07-25T19:44:52.419Z,8.70
2022-07-25T19:47:19.279Z,8.73
2022-07-25T19:49:46.166Z,8.85
2022-07-25T19:52:15.315Z,8.40
2022-07-25T19:54:42.425Z,8.80
2022-07-25T19:57:12.340Z,8.55
2022-07-25T19:59:39.180Z,8.40
2022-07-25T20:02:06.103Z,8.27
2022-07-25T20:04:33.402Z,8.52
2022-07-25T20:07:02.343Z,8.45
2022-07-25T20:09:33.713Z,8.63
2022-07-25T20:12:02.604Z,8.45
2022-07-25T20:14:29.395Z,8.48
2022-07-25T20:16:57.850Z,8.65
2022-07-25T20:19:24.853Z,8.95
2022-07-25T20:21:51.775Z,9.10
2022-07-25T20:24:21.683Z,8.70
2022-07-25T20:26:49.119Z,8.60
2022-07-25T20:29:15.997Z,8.50
2022-07-25T20:31:44.959Z,8.70
2022-07-25T20:34:15.926Z,8.63
2022-07-25T20:36:46.251Z,8.70
2022-07-25T20:39:13.735Z,8.73
2022-07-25T20:41:41.477Z,8.70
2022-07-25T20:44:12.034Z,8.50
2022-07-25T20:46:39.146Z,8.52
2022-07-25T20:49:09.013Z,8.77
2022-07-25T20:51:37.835Z,8.35
2022-07-25T20:54:05.029Z,8.60
2022-07-25T20:56:31.947Z,9.10
2022-07-25T20:58:58.636Z,8.68
2022-07-25T21:01:25.478Z,8.60
2022-07-25T21:03:52.291Z,8.48
2022-07-25T21:06:27.298Z,8.60
2022-07-25T21:08:54.276Z,8.60
2022-07-25T21:11:21.913Z,8.52
2022-07-25T21:13:48.855Z,8.68
2022-07-25T21:16:15.938Z,8.73
2022-07-25T21:18:42.761Z,8.73
2022-07-25T21:21:12.275Z,8.70
2022-07-25T21:23:39.257Z,8.52
2022-07-25T21:26:06.026Z,8.48
2022-07-25T21:28:33.846Z,8.45
2022-07-25T21:31:00.683Z,8.40
2022-07-25T21:33:27.447Z,8.32
2022-07-25T21:35:54.215Z,8.32
2022-07-25T21:38:26.453Z,8.07
2022-07-25T21:40:54.671Z,8.40
2022-07-25T21:43:21.427Z,8.45
2022-07-25T21:45:48.210Z,8.40
2022-07-25T21:48:15.509Z,8.25
2022-07-25T21:50:48.636Z,8.27
2022-07-25T21:53:17.301Z,8.50
2022-07-25T21:55:44.294Z,8.20
2022-07-25T21:58:11.076Z,8.40
2022-07-25T22:00:45.215Z,8.73
2022-07-25T22:03:15.610Z,8.35
2022-07-25T22:05:42.349Z,8.45
2022-07-25T22:08:09.109Z,8.50
2022-07-25T22:10:35.979Z,8.70
2022-07-25T22:13:02.751Z,8.18
2022-07-25T22:15:29.577Z,8.35
2022-07-25T22:17:56.266Z,8.10
2022-07-25T22:20:23.058Z,8.52
2022-07-25T22:22:50.333Z,8.23
2022-07-25T22:25:18.016Z,8.38
2022-07-25T22:27:44.893Z,8.10
2022-07-25T22:30:18.306Z,8.02
2022-07-25T22:32:47.996Z,8.30
2022-07-25T22:35:15.310Z,8.00
2022-07-25T22:37:42.116Z,8.10
2022-07-25T22:40:09.114Z,8.13
2022-07-25T22:42:35.835Z,8.10
2022-07-25T22:45:02.688Z,8.13
2022-07-25T22:47:29.612Z,8.18
2022-07-25T22:49:56.627Z,8.45
2022-07-25T22:52:23.428Z,8.63
2022-07-25T22:54:50.161Z,8.20
2022-07-25T22:57:16.981Z,7.95
2022-07-25T22:59:43.696Z,8.20
2022-07-25T23:02:10.432Z,8.63
2022-07-25T23:04:38.423Z,8.60
2022-07-25T23:07:05.471Z,8.27
2022-07-25T23:09:36.451Z,8.18
2022-07-25T23:12:05.025Z,8.55
2022-07-25T23:14:31.756Z,8.02
2022-07-25T23:17:16.971Z,8.18
2022-07-25T23:19:48.203Z,8.02
2022-07-25T23:22:15.106Z,8.07
2022-07-25T23:24:42.476Z,8.48
2022-07-25T23:27:09.557Z,7.88
2022-07-25T23:29:36.855Z,8.25
2022-07-25T23:32:04.054Z,8.25
2022-07-25T23:34:31.224Z,8.15
2022-07-25T23:36:57.921Z,8.10
2022-07-25T23:39:24.671Z,8.10
2022-07-25T23:41:51.974Z,7.82
2022-07-25T23:44:18.901Z,7.75
2022-07-25T23:46:46.693Z,7.78
2022-07-25T23:49:13.877Z,7.75
2022-07-25T23:51:41.082Z,7.80
2022-07-25T23:54:07.764Z,7.97
2022-07-25T23:56:34.767Z,8.00
2022-07-25T23:59:01.937Z,7.70
